createdAt,value
2022-08-20T00:00:46.853Z,26.25
2022-08-20T00:03:18.710Z,26.42
2022-08-20T00:05:52.041Z,24.85
2022-08-20T00:08:28.009Z,24.10
2022-08-20T00:10:58.224Z,24.23
2022-08-20T00:13:30.525Z,22.48
2022-08-20T00:15:59.481Z,24.42
2022-08-20T00:18:28.616Z,26.73
2022-08-20T00:20:57.994Z,24.98
2022-08-20T00:23:28.131Z,25.02
2022-08-20T00:25:56.943Z,23.60
2022-08-20T00:28:25.622Z,20.48
2022-08-20T00:30:54.354Z,24.33
2022-08-20T00:33:25.710Z,23.33
2022-08-20T00:35:56.540Z,24.95
2022-08-20T00:38:26.872Z,24.98
2022-08-20T00:40:58.604Z,23.25
2022-08-20T00:43:33.829Z,23.38
2022-08-20T00:46:07.545Z,22.60
2022-08-20T00:48:39.041Z,23.02
2022-08-20T00:51:11.156Z,22.60
2022-08-20T00:53:41.278Z,21.98
2022-08-20T00:56:12.144Z,23.05
2022-08-20T00:58:41.811Z,22.02
2022-08-20T01:01:10.827Z,23.15
2022-08-20T01:03:39.826Z,21.77
2022-08-20T01:06:09.251Z,24.10
2022-08-20T01:08:39.030Z,25.50
2022-08-20T01:11:12.519Z,25.92
2022-08-20T01:13:43.209Z,25.40
2022-08-20T01:16:19.202Z,28.98
2022-08-20T01:18:49.425Z,27.00
2022-08-20T01:21:24.073Z,24.95
2022-08-20T01:23:57.176Z,24.70
2022-08-20T01:26:31.481Z,23.85
2022-08-20T01:29:02.992Z,25.88
2022-08-20T01:31:34.089Z,26.23
2022-08-20T01:34:05.419Z,25.58
2022-08-20T01:36:40.135Z,27.55
2022-08-20T01:39:15.279Z,27.67
2022-08-20T01:41:58.792Z,26.85
2022-08-20T01:44:27.900Z,27.05
2022-08-20T01:47:11.272Z,26.45
2022-08-20T01:49:44.534Z,27.13
2022-08-20T01:52:20.044Z,23.95
2022-08-20T01:54:48.797Z,28.75
2022-08-20T01:57:21.317Z,27.70
2022-08-20T01:59:51.846Z,28.45
2022-08-20T02:02:21.044Z,26.90
2022-08-20T02:04:49.679Z,25.13
2022-08-20T02:07:22.670Z,27.58
2022-08-20T02:09:51.824Z,25.88
2022-08-20T02:12:21.812Z,27.33
2022-08-20T02:14:56.991Z,26.10
2022-08-20T02:17:28.092Z,29.92
2022-08-20T02:20:01.356Z,29.98
2022-08-20T02:22:38.109Z,26.35
2022-08-20T02:25:09.817Z,31.08
2022-08-20T02:27:42.230Z,30.63
2022-08-20T02:30:27.391Z,28.33
2022-08-20T02:32:57.564Z,27.02
2022-08-20T02:35:27.493Z,28.40
2022-08-20T02:37:57.049Z,28.95
2022-08-20T02:40:30.927Z,32.53
2022-08-20T02:43:02.200Z,29.00
2022-08-20T02:45:55.728Z,31.98
2022-08-20T02:48:24.548Z,28.60
2022-08-20T02:50:57.856Z,27.15
2022-08-20T02:53:27.415Z,30.45
2022-08-20T02:55:56.396Z,29.30
2022-08-20T02:58:26.496Z,28.33
2022-08-20T03:00:56.724Z,27.42
2022-08-20T03:03:25.488Z,30.90
2022-08-20T03:05:56.668Z,30.27
2022-08-20T03:08:26.408Z,29.10
2022-08-20T03:10:55.270Z,28.27
2022-08-20T03:13:24.383Z,28.88
2022-08-20T03:15:58.999Z,31.30
2022-08-20T03:18:31.013Z,31.55
2022-08-20T03:21:00.054Z,31.83
2022-08-20T03:23:28.840Z,31.40
2022-08-20T03:25:57.540Z,32.10
2022-08-20T03:28:26.349Z,32.50
2022-08-20T03:30:57.978Z,29.58
2022-08-20T03:33:27.292Z,30.65
2022-08-20T03:35:56.384Z,31.90
2022-08-20T03:38:33.048Z,28.95
2022-08-20T03:41:02.927Z,25.60
2022-08-20T03:43:32.509Z,27.77
2022-08-20T03:46:02.985Z,28.48
2022-08-20T03:48:31.732Z,29.30
2022-08-20T03:51:01.079Z,27.48
2022-08-20T03:53:31.844Z,28.67
2022-08-20T03:56:04.411Z,29.98
2022-08-20T03:58:35.914Z,26.60
2022-08-20T04:01:36.813Z,30.80
2022-08-20T04:03:58.657Z,27.33
2022-08-20T04:06:29.205Z,29.23
2022-08-20T04:08:58.294Z,29.60
2022-08-20T04:11:26.921Z,31.10
2022-08-20T04:13:55.670Z,28.33
2022-08-20T04:16:27.534Z,29.65
2022-08-20T04:19:01.972Z,30.40
2022-08-20T04:21:33.094Z,28.98
2022-08-20T04:24:03.453Z,31.20
2022-08-20T04:26:32.747Z,32.72
2022-08-20T04:29:01.639Z,31.30
2022-08-20T04:31:33.668Z,32.35
2022-08-20T04:34:03.009Z,29.73
2022-08-20T04:36:32.060Z,30.15
2022-08-20T04:39:00.754Z,30.08
2022-08-20T04:41:29.437Z,30.90
2022-08-20T04:43:59.064Z,30.20
2022-08-20T04:46:29.205Z,29.63
2022-08-20T04:49:01.145Z,32.30
2022-08-20T04:51:29.825Z,29.15
2022-08-20T04:54:01.386Z,30.45
2022-08-20T04:56:32.991Z,32.25
2022-08-20T04:59:02.923Z,30.60
2022-08-20T05:01:32.088Z,31.55
2022-08-20T05:04:02.179Z,29.52
2022-08-20T05:06:33.487Z,30.70
2022-08-20T05:09:02.135Z,31.73
2022-08-20T05:11:35.585Z,31.10
2022-08-20T05:14:09.313Z,30.85
2022-08-20T05:16:39.196Z,32.47
2022-08-20T05:19:12.174Z,30.10
2022-08-20T05:21:41.594Z,30.10
2022-08-20T05:24:11.991Z,30.42
2022-08-20T05:26:40.716Z,31.27
2022-08-20T05:29:09.487Z,30.85
2022-08-20T05:31:38.486Z,30.13
2022-08-20T05:34:12.354Z,31.45
2022-08-20T05:36:43.281Z,31.88
2022-08-20T05:39:13.320Z,31.30
2022-08-20T05:41:42.331Z,32.88
2022-08-20T05:44:13.654Z,30.75
2022-08-20T05:46:44.569Z,32.25
2022-08-20T05:49:16.607Z,31.10
2022-08-20T05:51:45.539Z,29.73
2022-08-20T05:54:16.064Z,29.75
2022-08-20T05:56:45.621Z,29.42
2022-08-20T05:59:15.633Z,29.75
2022-08-20T06:01:45.319Z,29.60
2022-08-20T06:04:28.691Z,29.40
2022-08-20T06:07:02.916Z,27.77
2022-08-20T06:09:33.101Z,25.80
2022-08-20T06:12:06.329Z,28.05
2022-08-20T06:14:36.079Z,27.30
2022-08-20T06:17:07.830Z,29.05
2022-08-20T06:19:39.647Z,27.23
2022-08-20T06:22:19.663Z,25.65
2022-08-20T06:24:56.687Z,24.60
2022-08-20T06:27:26.676Z,23.38
2022-08-20T06:29:56.165Z,23.35
2022-08-20T06:32:31.917Z,23.50
2022-08-20T06:35:04.524Z,24.77
2022-08-20T06:37:36.732Z,22.98
2022-08-20T06:40:11.642Z,24.17
2022-08-20T06:42:48.282Z,24.58
2022-08-20T06:45:20.061Z,24.65
2022-08-20T06:47:49.734Z,23.55
2022-08-20T06:50:23.294Z,25.02
2022-08-20T06:52:53.405Z,27.90
2022-08-20T06:55:22.996Z,23.60
2022-08-20T06:57:59.346Z,21.40
2022-08-20T07:00:29.536Z,22.38
2022-08-20T07:03:01.173Z,21.02
2022-08-20T07:05:33.535Z,22.02
2022-08-20T07:08:02.652Z,20.80
2022-08-20T07:10:31.717Z,20.65
2022-08-20T07:13:00.446Z,20.10
2022-08-20T07:15:29.198Z,20.27
2022-08-20T07:18:01.677Z,19.90
2022-08-20T07:20:33.188Z,18.48
2022-08-20T07:23:02.588Z,17.63
2022-08-20T07:25:33.568Z,18.40
2022-08-20T07:28:03.161Z,18.35
2022-08-20T07:30:55.867Z,17.23
2022-08-20T07:33:28.157Z,18.33
2022-08-20T07:36:00.245Z,18.38
2022-08-20T07:38:30.928Z,19.08
2022-08-20T07:41:02.050Z,18.65
2022-08-20T07:43:32.482Z,17.48
2022-08-20T07:46:07.461Z,16.30
2022-08-20T07:48:40.055Z,17.20
2022-08-20T07:51:11.494Z,16.88
2022-08-20T07:53:41.483Z,16.58
2022-08-20T07:56:12.794Z,16.67
2022-08-20T07:58:47.438Z,16.90
2022-08-20T08:01:16.610Z,18.00
2022-08-20T08:03:50.143Z,17.50
2022-08-20T08:06:28.994Z,17.50
2022-08-20T08:09:02.458Z,17.95
2022-08-20T08:11:34.314Z,18.10
2022-08-20T08:14:04.177Z,16.98
2022-08-20T08:16:34.423Z,17.00
2022-08-20T08:19:05.870Z,18.88
2022-08-20T08:21:35.961Z,18.40
2022-08-20T08:24:05.328Z,18.63
2022-08-20T08:26:33.971Z,17.90
2022-08-20T08:29:02.729Z,18.00
2022-08-20T08:31:31.371Z,17.52
2022-08-20T08:34:00.441Z,18.50
2022-08-20T08:36:29.182Z,16.95
2022-08-20T08:38:59.205Z,17.30
2022-08-20T08:41:32.364Z,17.55
2022-08-20T08:44:08.095Z,17.60
2022-08-20T08:46:42.699Z,17.83
2022-08-20T08:49:14.224Z,16.95
2022-08-20T08:51:48.630Z,17.30
2022-08-20T08:54:21.395Z,18.05
2022-08-20T08:56:51.106Z,17.20
2022-08-20T08:59:22.318Z,16.75
2022-08-20T09:01:57.090Z,17.35
2022-08-20T09:04:31.658Z,17.85
2022-08-20T09:07:02.743Z,16.50
2022-08-20T09:09:37.187Z,17.27
2022-08-20T09:12:08.394Z,17.33
2022-08-20T09:14:38.317Z,17.83
2022-08-20T09:17:08.317Z,18.27
2022-08-20T09:19:36.996Z,18.08
2022-08-20T09:22:10.256Z,17.60
2022-08-20T09:24:40.675Z,16.58
2022-08-20T09:27:09.960Z,16.75
2022-08-20T09:29:38.984Z,17.00
2022-08-20T09:32:09.407Z,17.25
2022-08-20T09:34:40.267Z,16.35
2022-08-20T09:37:09.031Z,17.48
2022-08-20T09:39:37.766Z,16.20
2022-08-20T09:42:12.251Z,15.98
2022-08-20T09:44:41.209Z,17.38
2022-08-20T09:47:10.324Z,15.98
2022-08-20T09:49:39.110Z,15.98
2022-08-20T09:52:10.867Z,16.33
2022-08-20T09:54:46.323Z,17.13
2022-08-20T09:57:17.260Z,16.15
2022-08-20T09:59:52.044Z,16.35
2022-08-20T10:02:28.803Z,18.58
2022-08-20T10:04:57.613Z,20.90
2022-08-20T10:07:26.492Z,17.63
2022-08-20T10:09:55.491Z,16.88
2022-08-20T10:12:25.450Z,17.13
2022-08-20T10:14:55.681Z,16.90
2022-08-20T10:17:24.423Z,17.60
2022-08-20T10:19:53.198Z,18.42
2022-08-20T10:22:21.911Z,17.77
2022-08-20T10:24:50.557Z,15.02
2022-08-20T10:27:19.218Z,14.90
2022-08-20T10:29:49.292Z,14.48
2022-08-20T10:32:18.017Z,15.20
2022-08-20T10:34:49.770Z,14.68
2022-08-20T10:37:20.349Z,14.57
2022-08-20T10:39:49.237Z,14.10
2022-08-20T10:42:17.945Z,13.23
2022-08-20T10:44:46.927Z,14.75
2022-08-20T10:47:21.863Z,13.88
2022-08-20T10:49:51.981Z,13.63
2022-08-20T10:52:21.408Z,13.98
2022-08-20T10:54:50.254Z,12.85
2022-08-20T10:57:20.973Z,12.82
2022-08-20T10:59:52.478Z,14.20
2022-08-20T11:02:23.146Z,13.35
2022-08-20T11:04:53.425Z,13.38
2022-08-20T11:07:55.411Z,13.68
2022-08-20T11:10:17.741Z,13.98
2022-08-20T11:12:46.966Z,13.65
2022-08-20T11:15:16.489Z,14.15
2022-08-20T11:17:47.115Z,14.07
2022-08-20T11:20:19.508Z,14.52
2022-08-20T11:22:48.729Z,14.20
2022-08-20T11:25:17.905Z,14.07
2022-08-20T11:27:49.503Z,13.73
2022-08-20T11:30:21.456Z,15.00
2022-08-20T11:32:51.696Z,13.55
2022-08-20T11:38:11.267Z,11.95
2022-08-20T11:40:40.211Z,11.02
2022-08-20T11:43:17.252Z,12.80
2022-08-20T11:45:49.662Z,11.65
2022-08-20T11:48:20.015Z,10.82
2022-08-20T11:50:49.987Z,11.27
2022-08-20T11:53:19.066Z,10.82
2022-08-20T11:55:48.554Z,10.00
2022-08-20T11:58:17.671Z,9.32
2022-08-20T12:00:46.521Z,9.82
2022-08-20T12:03:15.584Z,9.85
2022-08-20T12:05:46.967Z,8.98
2022-08-20T12:08:25.113Z,10.50
2022-08-20T12:10:58.380Z,10.55
2022-08-20T12:13:47.201Z,13.02
2022-08-20T12:16:16.590Z,13.65
2022-08-20T12:18:45.470Z,13.80
2022-08-20T12:21:15.994Z,15.85
2022-08-20T12:23:44.722Z,16.30
2022-08-20T12:26:13.489Z,18.40
2022-08-20T12:28:42.170Z,18.15
2022-08-20T12:31:11.228Z,20.88
2022-08-20T12:33:39.974Z,21.80
2022-08-20T12:36:09.422Z,21.50
2022-08-20T12:38:39.482Z,18.85
2022-08-20T12:41:08.202Z,17.98
2022-08-20T12:43:36.888Z,21.83
2022-08-20T12:46:05.660Z,22.40
2022-08-20T12:48:34.385Z,18.42
2022-08-20T12:51:03.047Z,17.00
2022-08-20T12:53:31.714Z,15.45
2022-08-20T12:56:02.529Z,15.25
2022-08-20T12:58:31.239Z,15.68
2022-08-20T13:01:00.048Z,15.50
2022-08-20T13:03:28.823Z,14.52
2022-08-20T13:06:02.485Z,12.18
2022-08-20T13:08:31.367Z,11.25
2022-08-20T13:11:01.483Z,10.43
2022-08-20T13:13:30.199Z,9.50
2022-08-20T13:15:58.905Z,11.35
2022-08-20T13:18:27.516Z,10.70
2022-08-20T13:20:56.243Z,11.35
2022-08-20T13:23:24.970Z,9.23
2022-08-20T13:25:53.708Z,6.25
2022-08-20T13:28:23.761Z,4.13
2022-08-20T13:30:52.522Z,3.92
2022-08-20T13:33:21.219Z,3.25
2022-08-20T13:35:50.026Z,3.78
2022-08-20T13:38:18.816Z,3.78
2022-08-20T13:40:48.976Z,3.70
2022-08-20T13:43:17.853Z,3.42
2022-08-20T13:45:47.916Z,3.05
2022-08-20T13:48:16.783Z,3.28
2022-08-20T13:50:46.938Z,3.67
2022-08-20T13:53:17.643Z,3.28
2022-08-20T13:55:48.068Z,3.30
2022-08-20T13:58:17.442Z,3.75
2022-08-20T14:00:47.702Z,4.38
2022-08-20T14:03:19.778Z,4.63
2022-08-20T14:05:48.936Z,4.90
2022-08-20T14:08:20.255Z,4.88
2022-08-20T14:10:51.439Z,5.85
2022-08-20T14:13:22.426Z,5.47
2022-08-20T14:15:53.311Z,5.40
2022-08-20T14:18:22.246Z,4.90
2022-08-20T14:20:51.164Z,4.32
2022-08-20T14:23:19.802Z,3.83
2022-08-20T14:25:50.476Z,4.50
2022-08-20T14:28:22.102Z,4.15
2022-08-20T14:30:53.700Z,4.00
2022-08-20T14:33:23.713Z,3.92
2022-08-20T14:35:52.990Z,4.25
2022-08-20T14:38:21.904Z,4.68
2022-08-20T14:40:50.804Z,4.00
2022-08-20T14:43:19.725Z,3.95
2022-08-20T14:45:48.362Z,3.80
2022-08-20T14:48:18.636Z,4.20
2022-08-20T14:50:47.302Z,4.07
2022-08-20T14:53:15.988Z,4.30
2022-08-20T14:55:44.773Z,4.28
2022-08-20T14:58:15.071Z,3.90
2022-08-20T15:00:44.849Z,3.67
2022-08-20T15:03:14.403Z,3.75
2022-08-20T15:05:44.429Z,3.80
2022-08-20T15:08:13.236Z,3.90
2022-08-20T15:10:42.873Z,4.22
2022-08-20T15:13:11.745Z,4.88
2022-08-20T15:15:41.382Z,4.50
2022-08-20T15:18:10.534Z,4.65
2022-08-20T15:20:39.223Z,4.47
2022-08-20T15:23:09.389Z,4.40
2022-08-20T15:25:38.585Z,4.75
2022-08-20T15:28:10.278Z,4.70
2022-08-20T15:30:40.280Z,4.53
2022-08-20T15:33:10.023Z,3.95
2022-08-20T15:35:38.982Z,4.57
2022-08-20T15:38:09.080Z,4.18
2022-08-20T15:40:38.252Z,4.05
2022-08-20T15:43:07.244Z,4.30
2022-08-20T15:45:36.898Z,4.18
2022-08-20T15:48:13.948Z,4.22
2022-08-20T15:51:21.430Z,3.85
2022-08-20T15:53:58.081Z,5.07
2022-08-20T15:56:42.114Z,3.10
2022-08-20T15:59:22.554Z,2.97
2022-08-20T16:02:01.985Z,2.80
2022-08-20T16:04:56.700Z,3.00
2022-08-20T16:07:33.642Z,2.72
2022-08-20T16:10:15.799Z,3.30
2022-08-20T16:12:50.600Z,2.53
2022-08-20T16:15:24.289Z,2.10
2022-08-20T16:18:00.689Z,2.30
2022-08-20T16:20:35.870Z,1.90
2022-08-20T16:23:05.480Z,1.67
2022-08-20T16:25:47.713Z,1.85
2022-08-20T16:28:23.620Z,2.10
2022-08-20T16:30:59.078Z,1.90
2022-08-20T16:33:33.028Z,1.95
2022-08-20T16:36:11.105Z,1.95
2022-08-20T16:38:44.198Z,2.38
2022-08-20T16:41:18.621Z,3.53
2022-08-20T16:43:53.930Z,2.00
2022-08-20T16:46:26.094Z,1.83
2022-08-20T16:48:58.242Z,1.70
2022-08-20T16:51:40.855Z,1.65
2022-08-20T16:54:10.307Z,1.67
2022-08-20T16:56:43.403Z,1.90
2022-08-20T16:59:18.341Z,1.58
2022-08-20T17:02:04.520Z,2.13
2022-08-20T17:04:50.400Z,1.83
2022-08-20T17:07:43.295Z,2.13
2022-08-20T17:10:21.388Z,1.77
2022-08-20T17:12:59.411Z,2.53
2022-08-20T17:15:30.413Z,2.33
2022-08-20T17:18:17.674Z,1.80
2022-08-20T17:20:46.991Z,1.73
2022-08-20T17:23:18.425Z,1.45
2022-08-20T17:25:57.762Z,1.75
2022-08-20T17:28:30.838Z,1.80
2022-08-20T17:31:03.506Z,1.75
2022-08-20T17:33:34.983Z,2.00
2022-08-20T17:36:11.151Z,1.70
2022-08-20T17:38:46.796Z,1.73
2022-08-20T17:41:21.685Z,1.65
2022-08-20T17:43:59.584Z,2.20
2022-08-20T17:46:30.489Z,2.05
2022-08-20T17:49:02.926Z,2.17
2022-08-20T17:51:38.132Z,2.10
2022-08-20T17:54:13.068Z,2.20
2022-08-20T17:56:44.528Z,2.30
2022-08-20T17:59:24.142Z,3.53
2022-08-20T18:02:09.060Z,2.65
2022-08-20T18:04:38.052Z,2.28
2022-08-20T18:07:13.293Z,2.38
2022-08-20T18:09:51.129Z,2.60
2022-08-20T18:12:33.413Z,3.10
2022-08-20T18:15:12.487Z,2.70
2022-08-20T18:18:00.911Z,2.95
2022-08-20T18:20:44.501Z,2.95
2022-08-20T18:23:17.407Z,2.72
2022-08-20T18:25:50.170Z,2.78
2022-08-20T18:28:22.894Z,3.00
2022-08-20T18:30:55.075Z,2.90
2022-08-20T18:33:33.636Z,3.83
2022-08-20T18:36:11.292Z,5.20
2022-08-20T18:38:42.786Z,4.75
2022-08-20T18:41:15.745Z,5.22
2022-08-20T18:43:44.762Z,4.70
2022-08-20T18:46:22.329Z,4.68
2022-08-20T18:48:57.006Z,4.68
2022-08-20T18:51:33.269Z,4.20
2022-08-20T18:54:02.113Z,4.00
2022-08-20T18:56:37.776Z,3.70
2022-08-20T18:59:14.400Z,4.22
2022-08-20T19:01:47.631Z,4.32
2022-08-20T19:04:23.149Z,3.83
2022-08-20T19:06:57.747Z,3.90
2022-08-20T19:09:53.978Z,3.35
2022-08-20T19:12:42.427Z,4.18
2022-08-20T19:15:15.186Z,4.20
2022-08-20T19:18:01.877Z,4.00
2022-08-20T19:20:34.216Z,4.03
2022-08-20T19:23:08.389Z,3.95
2022-08-20T19:25:41.755Z,4.53
2022-08-20T19:28:21.038Z,4.00
2022-08-20T19:30:50.256Z,3.28
2022-08-20T19:33:29.818Z,3.63
2022-08-20T19:36:11.702Z,3.28
2022-08-20T19:38:45.411Z,3.45
2022-08-20T19:41:22.091Z,3.30
2022-08-20T19:44:00.755Z,3.13
2022-08-20T19:46:34.571Z,3.45
2022-08-20T19:49:20.803Z,3.47
2022-08-20T19:52:01.033Z,3.33
2022-08-20T19:54:30.777Z,3.33
2022-08-20T19:57:01.032Z,3.00
2022-08-20T19:59:29.743Z,3.38
2022-08-20T20:02:02.626Z,3.20
2022-08-20T20:04:40.014Z,3.20
2022-08-20T20:07:17.887Z,3.17
2022-08-20T20:09:47.296Z,3.70
2022-08-20T20:12:22.449Z,3.67
2022-08-20T20:14:53.850Z,2.90
2022-08-20T20:17:25.374Z,3.72
2022-08-20T20:20:02.657Z,3.40
2022-08-20T20:22:35.580Z,3.63
2022-08-20T20:25:14.617Z,3.78
2022-08-20T20:27:48.741Z,3.20
2022-08-20T20:30:30.303Z,3.42
2022-08-20T20:33:01.417Z,3.63
2022-08-20T20:35:34.467Z,4.70
2022-08-20T20:38:06.853Z,4.18
2022-08-20T20:40:45.499Z,3.75
2022-08-20T20:43:25.553Z,3.38
2022-08-20T20:46:07.530Z,4.15
2022-08-20T20:48:48.313Z,3.72
2022-08-20T20:51:26.222Z,3.53
2022-08-20T20:53:57.907Z,3.45
2022-08-20T20:56:33.669Z,3.95
2022-08-20T20:59:06.540Z,3.10
2022-08-20T21:01:48.846Z,3.88
2022-08-20T21:04:21.227Z,3.92
2022-08-20T21:06:52.664Z,3.83
2022-08-20T21:09:22.291Z,4.35
2022-08-20T21:11:51.706Z,3.83
2022-08-20T21:14:20.558Z,5.28
2022-08-20T21:16:49.408Z,5.07
2022-08-20T21:19:19.132Z,4.95
2022-08-20T21:21:47.828Z,4.07
2022-08-20T21:24:17.848Z,4.40
2022-08-20T21:26:46.885Z,4.10
2022-08-20T21:29:18.761Z,4.22
2022-08-20T21:31:47.990Z,3.95
2022-08-20T21:34:17.486Z,3.95
2022-08-20T21:36:46.481Z,4.15
2022-08-20T21:39:17.188Z,3.60
2022-08-20T21:41:46.601Z,4.07
2022-08-20T21:44:24.990Z,4.20
2022-08-20T21:46:55.265Z,3.70
2022-08-20T21:49:24.809Z,4.15
2022-08-20T21:51:54.065Z,3.90
2022-08-20T21:54:25.259Z,3.83
2022-08-20T21:56:58.038Z,3.80
2022-08-20T21:59:27.041Z,4.30
2022-08-20T22:01:56.843Z,3.60
2022-08-20T22:04:25.516Z,4.00
2022-08-20T22:06:54.560Z,4.00
2022-08-20T22:09:24.789Z,3.95
2022-08-20T22:11:57.303Z,4.07
2022-08-20T22:14:30.189Z,3.75
2022-08-20T22:16:58.964Z,3.72
2022-08-20T22:19:27.672Z,3.72
2022-08-20T22:21:57.368Z,3.55
2022-08-20T22:24:29.348Z,3.90
2022-08-20T22:26:58.219Z,4.20
2022-08-20T22:29:26.927Z,4.75
2022-08-20T22:31:56.155Z,4.13
2022-08-20T22:34:25.490Z,4.20
2022-08-20T22:36:55.688Z,4.00
2022-08-20T22:39:24.557Z,3.97
2022-08-20T22:41:54.850Z,4.20
2022-08-20T22:44:23.639Z,4.38
2022-08-20T22:46:57.933Z,4.10
2022-08-20T22:49:30.314Z,3.47
2022-08-20T22:51:59.284Z,3.35
2022-08-20T22:54:28.804Z,3.80
2022-08-20T22:56:58.890Z,3.45
2022-08-20T22:59:28.110Z,3.70
2022-08-20T23:02:01.459Z,3.90
2022-08-20T23:04:34.333Z,3.70
2022-08-20T23:07:04.729Z,3.67
2022-08-20T23:09:33.841Z,3.40
2022-08-20T23:12:04.247Z,3.90
2022-08-20T23:14:33.345Z,3.67
2022-08-20T23:17:11.288Z,4.30
2022-08-20T23:19:42.898Z,4.13
2022-08-20T23:22:11.610Z,4.00
2022-08-20T23:24:40.838Z,4.30
2022-08-20T23:27:14.180Z,4.10
2022-08-20T23:29:43.011Z,3.88
2022-08-20T23:32:11.893Z,3.70
2022-08-20T23:34:40.958Z,3.28
2022-08-20T23:37:10.914Z,3.35
2022-08-20T23:39:40.361Z,3.30
2022-08-20T23:42:11.075Z,3.03
2022-08-20T23:44:39.957Z,3.10
2022-08-20T23:47:09.599Z,3.17
2022-08-20T23:49:38.584Z,3.22
2022-08-20T23:52:07.624Z,2.75
2022-08-20T23:54:36.335Z,3.05
2022-08-20T23:57:08.239Z,2.75
2022-08-20T23:59:38.858Z,2.88
